createdAt,value
2022-11-05T00:00:11.786Z,9
2022-11-05T00:03:12.619Z,8.9
2022-11-05T00:06:11.732Z,9
2022-11-05T00:09:11.710Z,8.9
2022-11-05T00:12:11.725Z,8.8
2022-11-05T00:15:11.747Z,8.6
2022-11-05T00:18:11.725Z,8.5
2022-11-05T00:21:11.727Z,8.4
2022-11-05T00:24:11.682Z,8.3
2022-11-05T00:27:11.757Z,8
2022-11-05T00:30:11.817Z,7.9
2022-11-05T00:33:12.650Z,7.7
2022-11-05T00:36:11.715Z,7.6
2022-11-05T00:39:11.757Z,7.6
2022-11-05T00:42:11.780Z,7.5
2022-11-05T00:45:11.921Z,7.5
2022-11-05T00:48:11.779Z,7.4
2022-11-05T00:51:11.746Z,7.2
2022-11-05T00:54:11.720Z,7.1
2022-11-05T00:57:15.956Z,7
2022-11-05T01:00:11.858Z,6.9
2022-11-05T01:03:12.767Z,6.9
2022-11-05T01:06:11.783Z,6.7
2022-11-05T01:09:11.699Z,6.7
2022-11-05T01:12:11.772Z,6.6
2022-11-05T01:15:11.768Z,6.6
2022-11-05T01:18:11.779Z,6.6
2022-11-05T01:21:11.815Z,6.7
2022-11-05T01:24:11.773Z,6.7
2022-11-05T01:27:11.812Z,6.7
2022-11-05T01:30:11.789Z,6.6
2022-11-05T01:33:12.447Z,6.6
2022-11-05T01:36:11.754Z,6.5
2022-11-05T01:39:11.759Z,6.5
2022-11-05T01:42:11.743Z,6.5
2022-11-05T01:45:11.840Z,6.5
2022-11-05T01:48:11.783Z,6.4
2022-11-05T01:51:11.787Z,6.4
2022-11-05T01:54:11.737Z,6.4
2022-11-05T01:57:11.730Z,6.4
2022-11-05T02:00:11.740Z,6.2
2022-11-05T02:03:13.300Z,6.4
2022-11-05T02:06:11.844Z,6.2
2022-11-05T02:09:11.684Z,6.2
2022-11-05T02:12:11.809Z,6.1
2022-11-05T02:15:11.720Z,6.1
2022-11-05T02:18:11.693Z,6
2022-11-05T02:21:11.788Z,6
2022-11-05T02:24:11.670Z,5.9
2022-11-05T02:27:11.712Z,5.9
2022-11-05T02:30:11.731Z,5.7
2022-11-05T02:33:13.061Z,5.7
2022-11-05T02:36:11.742Z,5.6
2022-11-05T02:39:11.708Z,5.6
2022-11-05T02:42:16.397Z,5.6
2022-11-05T02:45:11.734Z,5.6
2022-11-05T02:48:11.729Z,5.6
2022-11-05T02:51:12.057Z,5.6
2022-11-05T02:54:11.727Z,5.6
2022-11-05T02:57:11.780Z,5.6
2022-11-05T03:00:11.741Z,5.6
2022-11-05T03:03:12.991Z,5.5
2022-11-05T03:06:11.754Z,5.5
2022-11-05T03:09:11.747Z,5.5
2022-11-05T03:12:11.783Z,5.5
2022-11-05T03:15:11.890Z,5.5
2022-11-05T03:18:11.895Z,5.5
2022-11-05T03:21:11.914Z,5.4
2022-11-05T03:24:11.736Z,5.4
2022-11-05T03:27:11.729Z,5.5
2022-11-05T03:30:11.776Z,5.4
2022-11-05T03:33:12.394Z,5.4
2022-11-05T03:36:11.707Z,5.4
2022-11-05T03:39:11.733Z,5.4
2022-11-05T03:42:11.728Z,5.4
2022-11-05T03:45:11.787Z,5.4
2022-11-05T03:48:11.911Z,5.4
2022-11-05T03:51:11.652Z,5.4
2022-11-05T03:54:11.759Z,5.2
2022-11-05T03:57:11.810Z,5.4
2022-11-05T04:00:11.789Z,5.2
2022-11-05T04:03:13.191Z,5.2
2022-11-05T04:06:13.942Z,5.2
2022-11-05T04:09:11.749Z,5.4
2022-11-05T04:12:11.778Z,5.4
2022-11-05T04:15:11.708Z,5.4
2022-11-05T04:18:11.717Z,5.4
2022-11-05T04:21:11.727Z,5.4
2022-11-05T04:24:11.775Z,5.2
2022-11-05T04:27:11.771Z,5.2
2022-11-05T04:30:11.792Z,5.1
2022-11-05T04:33:12.630Z,5.1
2022-11-05T04:36:11.752Z,5.1
2022-11-05T04:39:11.775Z,5.1
2022-11-05T04:42:11.757Z,5.1
2022-11-05T04:45:11.712Z,5.1
2022-11-05T04:48:11.812Z,5.1
2022-11-05T04:51:11.726Z,5
2022-11-05T04:54:11.758Z,5
2022-11-05T04:57:11.693Z,5
2022-11-05T05:00:11.812Z,4.9
2022-11-05T05:03:12.558Z,4.6
2022-11-05T05:06:15.325Z,4.5
2022-11-05T05:09:11.724Z,4.4
2022-11-05T05:12:11.726Z,4.2
2022-11-05T05:15:11.730Z,4.1
2022-11-05T05:18:11.685Z,4
2022-11-05T05:21:11.759Z,3.9
2022-11-05T05:24:11.731Z,3.9
2022-11-05T05:27:11.812Z,3.7
2022-11-05T05:30:11.756Z,3.6
2022-11-05T05:33:12.252Z,3.6
2022-11-05T05:36:18.271Z,3.5
2022-11-05T05:39:11.652Z,3.5
2022-11-05T05:42:11.813Z,3.5
2022-11-05T05:45:11.762Z,3.6
2022-11-05T05:48:11.748Z,3.6
2022-11-05T05:51:11.747Z,3.7
2022-11-05T05:54:11.758Z,3.9
2022-11-05T05:57:11.743Z,4
2022-11-05T06:00:11.770Z,4.1
2022-11-05T06:03:13.173Z,4.2
2022-11-05T06:06:11.730Z,4.2
2022-11-05T06:09:11.735Z,4.2
2022-11-05T06:12:11.750Z,4.4
2022-11-05T06:15:11.754Z,4.4
2022-11-05T06:18:11.792Z,4.2
2022-11-05T06:21:11.665Z,4.2
2022-11-05T06:24:11.819Z,4.2
2022-11-05T06:27:11.764Z,4.2
2022-11-05T06:30:12.081Z,4.4
2022-11-05T06:33:12.609Z,4.6
2022-11-05T06:36:12.086Z,4.9
2022-11-05T06:39:11.737Z,5.1
2022-11-05T06:42:30.612Z,5.2
2022-11-05T06:45:11.775Z,5.4
2022-11-05T06:48:11.777Z,5.5
2022-11-05T06:51:11.834Z,5.6
2022-11-05T06:54:12.219Z,5.6
2022-11-05T06:57:11.793Z,5.7
2022-11-05T07:00:19.209Z,5.7
2022-11-05T07:03:12.366Z,5.9
2022-11-05T07:06:11.824Z,6
2022-11-05T07:09:12.408Z,6
2022-11-05T07:12:11.725Z,6.1
2022-11-05T07:15:11.744Z,6.1
2022-11-05T07:18:12.127Z,6.2
2022-11-05T07:21:11.785Z,6.4
2022-11-05T07:24:11.754Z,6.4
2022-11-05T07:27:11.765Z,6.5
2022-11-05T07:30:11.879Z,6.6
2022-11-05T07:33:12.613Z,6.7
2022-11-05T07:36:11.854Z,7
2022-11-05T07:39:11.979Z,7.1
2022-11-05T07:42:11.831Z,7.2
2022-11-05T07:45:11.783Z,7.4
2022-11-05T07:48:11.997Z,7.5
2022-11-05T07:51:11.727Z,7.6
2022-11-05T07:54:11.830Z,7.7
2022-11-05T07:57:11.741Z,7.9
2022-11-05T08:00:11.886Z,8
2022-11-05T08:03:22.753Z,8.1
2022-11-05T08:06:11.825Z,8.3
2022-11-05T08:09:11.800Z,8.3
2022-11-05T08:12:14.554Z,8.4
2022-11-05T08:15:11.827Z,8.5
2022-11-05T08:18:11.844Z,8.6
2022-11-05T08:21:11.840Z,8.8
2022-11-05T08:24:11.835Z,8.9
2022-11-05T08:27:11.873Z,9
2022-11-05T08:30:11.914Z,9.3
2022-11-05T08:33:12.726Z,9.6
2022-11-05T08:36:11.858Z,12.6
2022-11-05T08:39:18.008Z,14.3
2022-11-05T08:42:11.824Z,14.6
2022-11-05T08:45:11.940Z,16.6
2022-11-05T08:48:11.827Z,18.5
2022-11-05T08:51:11.803Z,19.8
2022-11-05T08:54:11.777Z,20.6
2022-11-05T08:57:11.851Z,21.5
2022-11-05T09:00:12.824Z,22.1
2022-11-05T09:03:12.831Z,22.8
2022-11-05T09:06:11.820Z,23.3
2022-11-05T09:09:11.786Z,23.6
2022-11-05T09:12:24.265Z,23.9
2022-11-05T09:15:11.765Z,24
2022-11-05T09:18:11.928Z,24.5
2022-11-05T09:21:11.928Z,25.1
2022-11-05T09:24:11.802Z,25.6
2022-11-05T09:27:11.774Z,26.2
2022-11-05T09:30:11.825Z,27.1
2022-11-05T09:33:12.715Z,26.9
2022-11-05T09:36:11.819Z,28.9
2022-11-05T09:39:12.596Z,29.5
2022-11-05T09:42:12.216Z,29.3
2022-11-05T09:45:11.912Z,27.9
2022-11-05T09:48:11.929Z,29.1
2022-11-05T09:51:11.784Z,26.6
2022-11-05T09:54:11.849Z,25.4
2022-11-05T09:57:11.914Z,27.5
2022-11-05T10:00:11.897Z,28.6
2022-11-05T10:03:12.664Z,29.3
2022-11-05T10:06:11.872Z,26.2
2022-11-05T10:09:11.782Z,24.3
2022-11-05T10:12:11.784Z,23
2022-11-05T10:15:12.060Z,25.4
2022-11-05T10:18:11.801Z,26.5
2022-11-05T10:21:11.820Z,28.3
2022-11-05T10:24:11.975Z,29.5
2022-11-05T10:27:11.816Z,30.3
2022-11-05T10:30:11.949Z,30.8
2022-11-05T10:33:12.505Z,30.9
2022-11-05T10:36:11.811Z,31
2022-11-05T10:39:11.837Z,31.1
2022-11-05T10:42:11.914Z,31.4
2022-11-05T10:45:11.885Z,31.5
2022-11-05T10:48:11.849Z,31.9
2022-11-05T10:51:11.917Z,30.3
2022-11-05T10:54:13.459Z,30.5
2022-11-05T10:57:11.894Z,31
2022-11-05T11:00:12.145Z,31.2
2022-11-05T11:03:12.610Z,31.4
2022-11-05T11:06:11.877Z,31.9
2022-11-05T11:09:12.033Z,32.2
2022-11-05T11:12:11.886Z,32.6
2022-11-05T11:15:11.825Z,32.9
2022-11-05T11:18:11.839Z,32.9
2022-11-05T11:21:11.958Z,32.5
2022-11-05T11:24:11.906Z,31.9
2022-11-05T11:27:11.808Z,32.2
2022-11-05T11:30:11.895Z,31.4
2022-11-05T11:33:12.810Z,31.5
2022-11-05T11:36:11.814Z,32.2
2022-11-05T11:39:11.874Z,30
2022-11-05T11:42:11.771Z,28.6
2022-11-05T11:45:11.812Z,27.6
2022-11-05T11:48:11.782Z,28
2022-11-05T11:51:11.854Z,29
2022-11-05T11:54:11.765Z,30.6
2022-11-05T11:57:17.502Z,31.5
2022-11-05T12:00:21.335Z,32
2022-11-05T12:03:14.156Z,32.5
2022-11-05T12:06:11.801Z,32.5
2022-11-05T12:09:18.245Z,32.4
2022-11-05T12:12:11.793Z,32.1
2022-11-05T12:15:12.546Z,31.8
2022-11-05T12:18:11.839Z,31.6
2022-11-05T12:21:11.978Z,30.6
2022-11-05T12:24:11.825Z,25.8
2022-11-05T12:27:11.901Z,22.8
2022-11-05T12:30:11.940Z,20.5
2022-11-05T12:33:13.438Z,19
2022-11-05T12:36:11.852Z,18
2022-11-05T12:39:11.909Z,17.2
2022-11-05T12:42:11.748Z,17
2022-11-05T12:45:11.889Z,16.9
2022-11-05T12:48:11.817Z,16.6
2022-11-05T12:51:11.957Z,16.5
2022-11-05T12:54:11.859Z,16.3
2022-11-05T12:57:12.016Z,16.6
2022-11-05T13:00:12.092Z,18
2022-11-05T13:03:12.840Z,16.9
2022-11-05T13:06:17.345Z,16.6
2022-11-05T13:09:11.876Z,19.9
2022-11-05T13:12:12.200Z,20.8
2022-11-05T13:15:11.878Z,23.5
2022-11-05T13:18:12.081Z,25.3
2022-11-05T13:21:11.821Z,25.1
2022-11-05T13:24:12.164Z,22.5
2022-11-05T13:27:11.934Z,25.1
2022-11-05T13:30:12.555Z,26.4
2022-11-05T13:33:12.554Z,27.2
2022-11-05T13:36:11.970Z,28
2022-11-05T13:39:12.007Z,28.4
2022-11-05T13:42:12.016Z,28.6
2022-11-05T13:45:11.768Z,28.7
2022-11-05T13:48:12.044Z,28.7
2022-11-05T13:51:11.788Z,28.7
2022-11-05T13:54:12.068Z,28.6
2022-11-05T13:57:11.774Z,28.4
2022-11-05T14:00:12.431Z,28.1
2022-11-05T14:03:12.460Z,27.9
2022-11-05T14:06:11.982Z,27.8
2022-11-05T14:09:11.811Z,27.6
2022-11-05T14:12:12.070Z,27.2
2022-11-05T14:15:11.717Z,27
2022-11-05T14:18:12.045Z,26.6
2022-11-05T14:21:11.847Z,26.4
2022-11-05T14:24:12.036Z,26
2022-11-05T14:27:11.756Z,25.5
2022-11-05T14:30:12.007Z,25
2022-11-05T14:33:12.530Z,24.6
2022-11-05T14:36:12.031Z,24.3
2022-11-05T14:39:15.648Z,23.9
2022-11-05T14:42:12.054Z,23.4
2022-11-05T14:45:11.932Z,23.1
2022-11-05T14:48:12.132Z,22.6
2022-11-05T14:51:11.795Z,22
2022-11-05T14:54:12.026Z,19.3
2022-11-05T14:57:11.709Z,17.6
2022-11-05T15:00:12.634Z,16.1
2022-11-05T15:03:12.410Z,14.9
2022-11-05T15:06:11.962Z,13.9
2022-11-05T15:09:11.776Z,13.1
2022-11-05T15:12:12.084Z,12.5
2022-11-05T15:15:12.757Z,11.9
2022-11-05T15:18:12.051Z,11.4
2022-11-05T15:21:11.748Z,11
2022-11-05T15:24:12.099Z,10.6
2022-11-05T15:27:11.766Z,10.3
2022-11-05T15:30:12.243Z,9.9
2022-11-05T15:33:12.687Z,9.5
2022-11-05T15:36:11.923Z,9.1
2022-11-05T15:39:40.890Z,8.8
2022-11-05T15:42:11.951Z,8.5
2022-11-05T15:45:11.776Z,8.1
2022-11-05T15:48:11.825Z,7.9
2022-11-05T15:51:11.740Z,7.5
2022-11-05T15:54:43.476Z,7.2
2022-11-05T15:57:11.748Z,7
2022-11-05T16:00:12.172Z,6.7
2022-11-05T16:03:12.468Z,6.5
2022-11-05T16:06:12.012Z,6.4
2022-11-05T16:09:11.661Z,6.2
2022-11-05T16:12:12.105Z,6
2022-11-05T16:15:11.740Z,5.9
2022-11-05T16:18:11.900Z,5.7
2022-11-05T16:21:11.728Z,5.7
2022-11-05T16:24:11.831Z,5.7
2022-11-05T16:27:21.811Z,5.7
2022-11-05T16:30:12.045Z,5.9
2022-11-05T16:33:11.958Z,6.1
2022-11-05T16:36:11.837Z,6.4
2022-11-05T16:39:12.145Z,6.5
2022-11-05T16:42:11.862Z,6.6
2022-11-05T16:45:11.708Z,6.7
2022-11-05T16:48:12.413Z,7
2022-11-05T16:51:11.725Z,7
2022-11-05T16:54:11.869Z,7.1
2022-11-05T16:57:11.907Z,7.2
2022-11-05T17:00:11.849Z,7.2
2022-11-05T17:03:12.067Z,7.4
2022-11-05T17:06:11.863Z,7.4
2022-11-05T17:09:11.723Z,7.4
2022-11-05T17:12:11.846Z,7.4
2022-11-05T17:15:11.744Z,7.5
2022-11-05T17:18:19.054Z,7.5
2022-11-05T17:21:11.666Z,7.4
2022-11-05T17:24:11.817Z,7.4
2022-11-05T17:27:11.709Z,7.1
2022-11-05T17:30:11.842Z,7
2022-11-05T17:33:13.132Z,6.9
2022-11-05T17:36:12.224Z,6.7
2022-11-05T17:39:11.818Z,6.6
2022-11-05T17:42:12.108Z,6.5
2022-11-05T17:45:11.751Z,6.4
2022-11-05T17:48:11.814Z,6.4
2022-11-05T17:51:11.764Z,6.4
2022-11-05T17:54:11.799Z,6.2
2022-11-05T17:57:11.726Z,6.2
2022-11-05T18:00:12.818Z,6.2
2022-11-05T18:03:12.498Z,6.1
2022-11-05T18:06:11.929Z,6.1
2022-11-05T18:09:11.818Z,6
2022-11-05T18:12:11.828Z,6
2022-11-05T18:15:11.814Z,5.9
2022-11-05T18:18:12.163Z,5.9
2022-11-05T18:21:11.746Z,5.9
2022-11-05T18:24:11.892Z,5.7
2022-11-05T18:27:11.727Z,5.7
2022-11-05T18:30:11.965Z,5.7
2022-11-05T18:33:12.608Z,5.6
2022-11-05T18:36:11.931Z,5.7
2022-11-05T18:39:12.072Z,5.7
2022-11-05T18:42:11.817Z,5.7
2022-11-05T18:45:12.090Z,5.7
2022-11-05T18:48:12.560Z,5.7
2022-11-05T18:51:13.325Z,5.7
2022-11-05T18:54:11.860Z,5.6
2022-11-05T18:57:11.715Z,5.6
2022-11-05T19:00:11.815Z,5.6
2022-11-05T19:03:12.062Z,5.5
2022-11-05T19:06:11.762Z,5.4
2022-11-05T19:09:11.818Z,5.4
2022-11-05T19:12:11.754Z,5.2
2022-11-05T19:15:14.236Z,5.2
2022-11-05T19:18:12.174Z,5.1
2022-11-05T19:21:11.753Z,5.1
2022-11-05T19:24:16.572Z,5
2022-11-05T19:27:11.748Z,5
2022-11-05T19:30:11.827Z,5
2022-11-05T19:33:11.877Z,5
2022-11-05T19:39:11.819Z,5
2022-11-05T19:42:15.768Z,4.9
2022-11-05T19:45:55.235Z,4.9
2022-11-05T19:48:19.588Z,4.9
2022-11-05T19:51:11.773Z,4.9
2022-11-05T19:54:11.800Z,4.9
2022-11-05T19:57:11.715Z,4.9
2022-11-05T20:00:12.484Z,4.9
2022-11-05T20:03:12.442Z,4.9
2022-11-05T20:06:12.248Z,4.7
2022-11-05T20:09:34.174Z,4.7
2022-11-05T20:12:11.760Z,4.7
2022-11-05T20:15:11.757Z,4.7
2022-11-05T20:18:12.482Z,4.6
2022-11-05T20:21:11.658Z,4.6
2022-11-05T20:24:11.719Z,4.7
2022-11-05T20:27:11.690Z,4.7
2022-11-05T20:30:11.740Z,4.9
2022-11-05T20:33:11.676Z,4.9
2022-11-05T20:36:11.706Z,5
2022-11-05T20:39:11.743Z,5
2022-11-05T20:42:11.863Z,5
2022-11-05T20:45:11.688Z,5
2022-11-05T20:48:12.168Z,5.1
2022-11-05T20:51:11.748Z,5.1
2022-11-05T20:54:11.800Z,5.1
2022-11-05T20:57:11.958Z,5.1
2022-11-05T21:00:11.789Z,5.1
2022-11-05T21:03:12.194Z,5
2022-11-05T21:06:11.724Z,5
2022-11-05T21:09:11.729Z,5
2022-11-05T21:12:11.714Z,5
2022-11-05T21:15:11.756Z,4.9
2022-11-05T21:18:12.055Z,4.9
2022-11-05T21:21:11.767Z,4.9
2022-11-05T21:24:11.687Z,4.7
2022-11-05T21:27:11.713Z,4.7
2022-11-05T21:30:11.752Z,4.7
2022-11-05T21:33:11.718Z,4.7
2022-11-05T21:36:11.647Z,4.7
2022-11-05T21:39:18.653Z,4.7
2022-11-05T21:42:11.687Z,4.7
2022-11-05T21:45:12.089Z,4.7
2022-11-05T21:51:11.686Z,4.9
2022-11-05T21:54:11.728Z,4.9
2022-11-05T21:57:17.653Z,4.9
2022-11-05T22:00:11.877Z,5
2022-11-05T22:03:11.938Z,5
2022-11-05T22:06:11.715Z,5
2022-11-05T22:09:11.697Z,5.1
2022-11-05T22:12:11.852Z,5.1
2022-11-05T22:15:11.724Z,5.2
2022-11-05T22:18:12.227Z,5.2
2022-11-05T22:21:11.715Z,5.2
2022-11-05T22:24:11.770Z,5.4
2022-11-05T22:27:11.716Z,5.4
2022-11-05T22:30:11.688Z,5.5
2022-11-05T22:33:11.684Z,5.5
2022-11-05T22:36:11.722Z,5.7
2022-11-05T22:39:11.772Z,6
2022-11-05T22:42:20.279Z,6.1
2022-11-05T22:45:11.745Z,6.4
2022-11-05T22:48:20.877Z,6.6
2022-11-05T22:51:12.266Z,6.7
2022-11-05T22:54:11.707Z,7
2022-11-05T22:57:11.725Z,7.1
2022-11-05T23:00:12.048Z,7.2
2022-11-05T23:03:13.027Z,7.4
2022-11-05T23:06:11.747Z,7.5
2022-11-05T23:09:11.688Z,7.6
2022-11-05T23:12:11.719Z,7.7
2022-11-05T23:15:11.678Z,7.7
2022-11-05T23:18:12.247Z,7.7
2022-11-05T23:21:11.687Z,7.7
2022-11-05T23:24:11.712Z,7.7
2022-11-05T23:27:11.731Z,7.6
2022-11-05T23:30:11.718Z,7.5
2022-11-05T23:33:11.739Z,7.4
2022-11-05T23:36:11.754Z,7.2
2022-11-05T23:39:11.712Z,7.1
2022-11-05T23:42:11.651Z,7
2022-11-05T23:45:17.113Z,6.9
2022-11-05T23:48:12.270Z,6.9
2022-11-05T23:51:11.727Z,6.7
2022-11-05T23:54:11.794Z,6.7
2022-11-05T23:57:11.786Z,6.9
